Latest Weather Observations for Edinburgh

IDS60801

Issued at 4:51 pm CST Tuesday 20 April 2021 (issued every 10 minutes, with the page automatically refreshed every 10 minutes)

About weather observations | Map of weather stations | Latest weather observations for SA | Other Formats
Station Details ID: 023083 Name: EDINBURGH RAAF Lat: -34.71 Lon: 138.62 Height: 16.54 m
Data from the previous 72 hours. | See also: Recent months at Edinburgh
Date/Time
CST
Temp
°C
App
Temp
°C
Dew
Point
°C
Rel
Hum
%
Delta-T
°C
Wind Press
QNH
hPa
Press
MSL
hPa
Rain since
9am
mm
Dir  Spd
km/h
Gust
km/h
Spd
kts
Gust
kts
20/04:30pm 16.7 10.2 4.7 45 5.7 SW 28 35 15 19 1017.4 1017.3 3.8
20/04:00pm 17.3 10.9 5.3 45 5.8 SSW 28 37 15 20 1017.2 1017.1 3.8
20/03:30pm 17.5 10.5 5.8 46 5.7 SW 32 37 17 20 1016.9 1016.8 3.8
20/03:00pm 18.1 12.3 6.3 46 5.8 SSW 26 37 14 20 1016.6 1016.5 3.8
20/02:30pm 17.8 12.5 6.7 48 5.5 SSW 24 35 13 19 1016.5 1016.4 3.8
20/02:00pm 17.8 12.9 8.6 55 4.7 SSW 24 33 13 18 1016.4 1016.3 3.8
20/01:30pm 17.4 11.7 8.5 56 4.6 SSW 28 37 15 20 1016.5 1016.4 3.8
20/01:00pm 16.6 10.7 9.1 61 3.9 SSW 30 39 16 21 1016.6 1016.5 3.8
20/12:30pm 17.4 12.7 10.5 64 3.7 SSW 26 39 14 21 1016.5 1016.4 3.8
20/12:00pm 17.2 12.3 10.1 63 3.8 S 26 35 14 19 1016.4 1016.3 3.8
20/11:30am 16.1 10.9 11.7 75 2.4 S 30 44 16 24 1016.4 1016.3 3.8
20/11:00am 15.7 10.8 12.6 82 1.7 SSW 30 37 16 20 1016.0 1015.9 3.6
20/10:30am 15.5 12.0 13.3 87 1.2 SW 24 32 13 17 1015.4 1015.3 3.6
20/10:14am 15.2 13.0 13.2 88 1.1 S 17 24 9 13 1015.1 1015.0 3.6
20/10:00am 15.3 12.6 13.0 86 1.3 SW 19 32 10 17 1014.9 1014.8 3.4
20/09:58am 15.6 12.5 13.4 87 1.2 WSW 22 35 12 19 1014.9 1014.8 3.0
20/09:30am 16.1 12.7 12.5 79 2.0 WNW 22 32 12 17 1015.0 1014.9 0.2
20/09:00am 16.1 12.5 10.4 69 3.0 NW 20 26 11 14 1014.9 1014.8 0.0
20/08:30am 14.7 11.3 9.3 70 2.8 NW 17 20 9 11 1014.9 1014.8 0.0
20/08:00am 13.0 10.0 7.9 71 2.5 N 13 22 7 12 1014.8 1014.7 0.0
20/07:30am 10.9 7.7 6.8 76 1.9 N 13 17 7 9 1014.5 1014.4 0.0
20/07:00am 9.4 6.0 5.8 78 1.6 N 13 17 7 9 1014.4 1014.3 0.0
20/06:30am 9.8 5.3 6.0 77 1.8 N 19 22 10 12 1014.1 1014.0 0.0
20/06:00am 9.0 5.6 5.9 81 1.4 NE 13 15 7 8 1014.1 1014.0 0.0
20/05:30am 9.7 6.4 6.2 79 1.6 NNE 13 15 7 8 1014.2 1014.1 0.0
20/05:00am 10.2 7.3 6.4 77 1.8 NNE 11 13 6 7 1014.2 1014.1 0.0
20/04:30am 9.8 7.2 6.0 77 1.8 NE 9 11 5 6 1014.1 1014.0 0.0
20/04:00am 10.3 7.3 6.1 75 1.9 NE 11 13 6 7 1014.0 1013.9 0.0
20/03:30am 9.8 7.1 5.8 76 1.8 NE 9 11 5 6 1014.0 1013.9 0.0
20/03:00am 9.7 6.3 5.7 76 1.8 NE 13 13 7 7 1014.2 1014.1 0.0
20/02:30am 10.1 6.7 5.7 74 2.0 NE 13 15 7 8 1014.3 1014.2 0.0
20/02:00am 10.0 6.5 5.6 74 2.0 NE 13 17 7 9 1014.6 1014.5 0.0
20/01:30am 9.7 6.1 5.1 73 2.1 NE 13 17 7 9 1015.0 1014.9 0.0
20/01:00am 9.8 6.7 5.4 74 2.0 NE 11 13 6 7 1015.2 1015.1 0.0
20/12:30am 10.2 7.5 5.4 72 2.2 NE 9 11 5 6 1015.3 1015.2 0.0
20/12:00am 10.5 7.8 5.5 71 2.3 NE 9 13 5 7 1015.4 1015.3 0.0
 
Date/Time
CST
Temp
°C
App
Temp
°C
Dew
Point
°C
Rel
Hum
%
Delta-T
°C
Wind Press
QNH
hPa
Press
MSL
hPa
Rain since
9am
mm
Dir  Spd
km/h
Gust
km/h
Spd
kts
Gust
kts
19/11:30pm 11.1 8.4 5.6 69 2.5 NE 9 11 5 6 1015.4 1015.3 0.0
19/11:00pm 11.3 9.0 5.6 68 2.6 NE 7 9 4 5 1015.6 1015.5 0.0
19/10:30pm 11.1 8.4 5.8 70 2.5 NNE 9 11 5 6 1015.8 1015.7 0.0
19/10:00pm 11.1 8.3 5.0 66 2.8 NE 9 13 5 7 1015.8 1015.7 0.0
19/09:30pm 11.3 9.1 6.2 71 2.4 ENE 7 11 4 6 1015.7 1015.6 0.0
19/09:00pm 12.7 10.9 5.4 61 3.4 NE 4 6 2 3 1015.9 1015.8 0.0
19/08:30pm 13.7 11.7 6.3 61 3.5 NE 6 6 3 3 1015.9 1015.8 0.0
19/08:00pm 13.4 11.3 5.8 60 3.6 NE 6 7 3 4 1015.9 1015.8 0.0
19/07:30pm 14.8 13.9 6.1 56 4.2 CALM 0 0 0 0 1015.9 1015.8 0.0
19/07:00pm 15.4 13.7 5.9 53 4.6 N 4 6 2 3 1016.0 1015.9 0.0
19/06:30pm 16.4 15.7 6.8 53 4.7 CALM 0 0 0 0 1016.0 1015.9 0.0
19/06:00pm 16.8 14.4 5.4 47 5.5 W 7 9 4 5 1015.9 1015.8 0.0
19/05:30pm 18.6 15.2 5.8 43 6.3 WNW 13 19 7 10 1015.9 1015.8 0.0
19/05:00pm 19.5 14.8 5.9 41 6.7 W 20 26 11 14 1015.8 1015.7 0.0
19/04:30pm 20.0 14.5 6.0 40 7.0 W 24 30 13 16 1015.8 1015.7 0.0
19/04:00pm 20.6 15.2 6.2 39 7.2 W 24 30 13 16 1016.0 1015.9 0.0
19/03:30pm 20.7 15.0 6.6 40 7.1 W 26 32 14 17 1016.1 1016.0 0.0
19/03:00pm 20.8 15.3 7.4 42 6.9 W 26 33 14 18 1016.1 1016.0 0.0
19/02:30pm 20.5 14.4 6.5 40 7.0 W 28 35 15 19 1016.2 1016.1 0.0
19/02:00pm 21.1 15.9 7.3 41 7.1 W 24 35 13 19 1016.3 1016.2 0.0
19/01:30pm 20.9 15.8 7.5 42 6.9 W 24 32 13 17 1016.6 1016.5 0.0
19/01:00pm 19.8 14.9 8.5 48 5.9 WNW 24 33 13 18 1017.4 1017.3 0.0
19/12:51pm 19.9 14.6 8.3 47 6.0 WNW 26 35 14 19 1017.6 1017.5 0.0
19/12:30pm 18.8 17.0 9.6 55 4.9 WNW 9 15 5 8 1018.2 1018.1 0.0
19/12:00pm 17.4 16.1 10.1 62 3.9 W 7 13 4 7 1018.8 1018.7 0.0
19/11:30am 16.9 13.9 9.3 61 3.9 N 15 22 8 12 1019.4 1019.3 0.0
19/11:00am 16.5 13.5 9.4 63 3.7 NW 15 20 8 11 1019.8 1019.7 0.0
19/10:30am 16.6 13.8 8.6 59 4.1 NNW 13 19 7 10 1020.0 1019.9 0.0
19/10:00am 15.9 13.8 8.4 61 3.8 NNE 9 15 5 8 1020.1 1020.0 0.0
19/09:30am 15.1 12.6 8.3 64 3.4 NNE 11 15 6 8 1020.4 1020.3 0.0
19/09:00am 14.5 11.8 9.1 70 2.7 NE 13 17 7 9 1020.5 1020.4 0.0
19/08:30am 13.9 12.0 8.9 72 2.5 ENE 9 13 5 7 1020.7 1020.6 0.0
19/08:00am 13.3 11.8 9.2 76 2.1 E 7 9 4 5 1020.6 1020.5 0.0
19/07:30am 13.2 10.8 8.5 73 2.3 NE 11 17 6 9 1020.2 1020.1 0.0
19/07:00am 13.0 10.6 8.5 74 2.2 NNE 11 17 6 9 1020.1 1020.0 0.0
19/06:30am 12.6 10.1 8.3 75 2.1 NNE 11 13 6 7 1020.2 1020.1 0.0
19/06:00am 12.6 10.5 8.3 75 2.1 NE 9 15 5 8 1020.3 1020.2 0.0
19/05:30am 12.2 9.7 8.3 77 1.9 NE 11 15 6 8 1020.2 1020.1 0.0
19/05:00am 11.3 8.0 8.0 80 1.6 NE 15 19 8 10 1020.1 1020.0 0.0
19/04:30am 11.0 8.3 7.5 79 1.7 NNE 11 13 6 7 1020.2 1020.1 0.0
19/04:00am 10.6 7.4 6.9 78 1.8 NNE 13 15 7 8 1020.1 1020.0 0.0
19/03:30am 12.2 9.6 7.9 75 2.1 NE 11 13 6 7 1020.0 1019.9 0.0
19/03:00am 12.5 10.3 7.8 73 2.3 NE 9 11 5 6 1020.4 1020.3 0.0
19/02:30am 13.0 11.2 7.9 71 2.5 NNE 7 9 4 5 1020.6 1020.5 0.0
19/02:00am 14.1 11.7 8.5 69 2.8 NE 11 13 6 7 1020.9 1020.8 0.0
19/01:30am 14.7 13.3 9.5 71 2.7 NE 7 9 4 5 1021.4 1021.3 0.0
19/01:00am 14.8 12.7 9.8 72 2.6 NNE 11 13 6 7 1021.5 1021.4 0.0
19/12:30am 14.8 12.5 10.6 76 2.2 NNE 13 15 7 8 1021.7 1021.6 0.0
19/12:00am 14.9 12.4 11.1 78 2.0 SW 15 17 8 9 1022.2 1022.1 0.0
 
Date/Time
CST
Temp
°C
App
Temp
°C
Dew
Point
°C
Rel
Hum
%
Delta-T
°C
Wind Press
QNH
hPa
Press
MSL
hPa
Rain since
9am
mm
Dir  Spd
km/h
Gust
km/h
Spd
kts
Gust
kts
18/11:30pm 15.1 13.2 11.7 80 1.8 SSW 13 15 7 8 1022.4 1022.3 0.0
18/11:00pm 15.0 14.0 11.0 77 2.1 WSW 7 13 4 7 1022.7 1022.6 0.0
18/10:30pm 15.3 14.5 10.9 75 2.3 SE 6 9 3 5 1022.8 1022.7 0.0
18/10:00pm 15.5 14.9 9.0 65 3.3 SSE 2 7 1 4 1022.9 1022.8 0.0
18/09:30pm 15.3 14.9 8.1 62 3.6 CALM 0 0 0 0 1022.9 1022.8 0.0
18/09:00pm 15.0 13.2 8.0 63 3.5 NE 7 9 4 5 1023.0 1022.9 0.0
18/08:30pm 14.7 13.1 8.0 64 3.3 ENE 6 7 3 4 1023.0 1022.9 0.0
18/08:00pm 15.5 15.1 8.3 62 3.6 CALM 0 6 0 3 1023.2 1023.1 0.0
18/07:30pm 16.2 14.5 8.2 59 4.0 SSW 7 9 4 5 1023.5 1023.4 0.0
18/07:00pm 16.2 14.0 7.9 58 4.2 SSW 9 13 5 7 1023.6 1023.5 0.0
18/06:30pm 17.0 14.7 7.6 54 4.7 WSW 9 11 5 6 1023.5 1023.4 0.0
18/06:00pm 17.6 14.5 7.4 51 5.1 SW 13 17 7 9 1023.2 1023.1 0.0
18/05:30pm 17.9 14.3 6.7 48 5.5 WSW 15 19 8 10 1023.2 1023.1 0.0
18/05:00pm 18.5 15.2 6.4 45 6.0 SW 13 17 7 9 1023.2 1023.1 0.0
18/04:30pm 18.6 14.3 6.8 46 5.9 SW 19 24 10 13 1023.1 1023.0 0.0
18/04:00pm 18.5 15.1 7.6 49 5.5 SW 15 19 8 10 1023.2 1023.1 0.0
18/03:30pm 18.9 14.6 7.7 48 5.7 SW 20 26 11 14 1023.3 1023.2 0.0
18/03:00pm 20.1 16.4 7.8 45 6.3 WSW 17 24 9 13 1023.4 1023.3 0.0
18/02:30pm 19.1 15.9 8.4 50 5.5 SW 15 20 8 11 1023.5 1023.4 0.0
18/02:00pm 18.7 14.5 8.1 50 5.4 WSW 20 26 11 14 1023.8 1023.7 0.0
18/01:30pm 19.1 14.5 6.6 44 6.2 WSW 20 26 11 14 1024.1 1024.0 0.0
18/01:00pm 18.9 15.8 7.4 47 5.8 W 13 20 7 11 1024.4 1024.3 0.0
18/12:30pm 19.4 16.0 7.5 46 6.0 WSW 15 22 8 12 1024.8 1024.7 0.0
18/12:00pm 18.3 16.9 9.6 57 4.6 WSW 7 17 4 9 1025.5 1025.4 0.0
18/11:30am 17.7 15.7 10.3 62 3.9 NW 11 19 6 10 1025.8 1025.7 0.0
18/11:00am 17.3 15.5 10.9 66 3.4 NW 11 17 6 9 1026.0 1025.9 0.0
18/10:30am 16.9 15.8 10.5 66 3.4 N 7 13 4 7 1026.3 1026.3 0.0
18/10:00am 16.5 14.7 10.8 69 3.0 N 11 13 6 7 1026.5 1026.5 0.0
18/09:30am 15.8 13.3 11.2 74 2.5 NNE 15 17 8 9 1026.8 1026.8 0.0
18/09:00am 14.8 13.3 11.8 82 1.6 ENE 11 15 6 8 1026.9 1026.9 0.0
18/08:30am 14.3 13.1 11.6 84 1.4 ENE 9 13 5 7 1027.0 1027.0 0.0
18/08:00am 13.5 12.8 11.4 87 1.1 N 6 9 3 5 1026.9 1026.9 0.0
18/07:30am 13.6 12.6 11.0 84 1.4 N 7 11 4 6 1026.7 1026.7 0.0
18/07:00am 13.3 11.2 11.0 86 1.2 NNE 13 15 7 8 1026.3 1026.3 0.0
18/06:30am 13.6 12.2 11.0 84 1.4 ENE 9 11 5 6 1026.2 1026.1 0.0
18/06:00am 13.3 11.5 10.7 84 1.4 N 11 15 6 8 1026.2 1026.1 0.0
18/05:30am 13.4 11.5 10.6 83 1.5 N 11 13 6 7 1026.3 1026.3 0.0
18/05:00am 13.5 11.9 10.3 81 1.7 NNE 9 11 5 6 1026.2 1026.1 0.0
18/04:30am 13.7 11.3 10.1 79 1.9 NNE 13 13 7 7 1026.1 1026.0 0.0
18/04:00am 14.2 11.9 10.4 78 2.0 NNE 13 15 7 8 1026.0 1025.9 0.0
18/03:30am 14.6 13.0 10.2 75 2.3 NE 9 13 5 7 1026.2 1026.1 0.0
18/03:00am 14.8 13.7 10.0 73 2.5 NE 6 9 3 5 1026.4 1026.4 0.0
18/02:30am 14.7 13.0 9.9 73 2.5 N 9 11 5 6 1026.3 1026.3 0.0
18/02:00am 14.9 13.5 9.7 71 2.7 N 7 9 4 5 1026.6 1026.6 0.0
18/01:30am 15.0 13.8 9.4 69 2.9 N 6 7 3 4 1026.8 1026.8 0.0
18/01:00am 15.1 13.9 9.5 69 2.9 N 6 6 3 3 1026.9 1026.9 0.0
18/12:30am 15.4 14.6 9.5 68 3.0 SSE 4 7 2 4 1027.0 1027.0 0.0
18/12:00am 15.2 13.1 9.6 69 2.9 NNW 11 13 6 7 1027.0 1027.0 0.0
 
Date/Time
CST
Temp
°C
App
Temp
°C
Dew
Point
°C
Rel
Hum
%
Delta-T
°C
Wind Press
QNH
hPa
Press
MSL
hPa
Rain since
9am
mm
Dir  Spd
km/h
Gust
km/h
Spd
kts
Gust
kts
17/11:30pm 15.3 13.7 10.1 71 2.7 WNW 9 11 5 6 1027.2 1027.2 0.0
17/11:00pm 15.4 12.4 10.6 73 2.5 W 17 20 9 11 1027.7 1027.7 0.0
17/10:30pm 15.5 12.2 11.5 77 2.1 SW 20 24 11 13 1027.8 1027.8 0.0
17/10:00pm 16.0 14.8 9.4 65 3.4 S 6 7 3 4 1027.8 1027.8 0.0
17/09:30pm 15.5 13.9 8.7 64 3.4 SW 7 7 4 4 1027.7 1027.7 0.0
17/09:00pm 16.1 14.8 9.1 63 3.6 SE 6 7 3 4 1027.7 1027.7 0.0
17/08:30pm 16.6 14.7 9.1 61 3.9 S 9 9 5 5 1027.8 1027.8 0.0
17/08:00pm 16.8 14.8 8.5 58 4.2 S 9 11 5 6 1027.8 1027.8 0.0
17/07:30pm 16.8 14.3 8.2 57 4.3 S 11 13 6 7 1027.9 1027.9 0.0
17/07:00pm 16.9 13.2 8.1 56 4.5 SSW 17 20 9 11 1027.8 1027.8 0.0
17/06:30pm 16.9 13.7 8.3 57 4.4 SSW 15 19 8 10 1027.8 1027.8 0.0
17/06:00pm 16.9 13.2 8.1 56 4.4 SSW 17 20 9 11 1027.6 1027.6 0.0
17/05:30pm 16.8 12.5 7.7 55 4.6 SW 20 24 11 13 1027.3 1027.3 0.0
17/05:00pm 17.0 12.6 7.4 53 4.8 SW 20 28 11 15 1027.0 1027.0 0.0

Other formats

Comma delimited format used in spreadsheet applications
http://www.bom.gov.au/fwo/IDS60801/IDS60801.95676.axf

JavaScript Object Notation format (JSON) in row-major order
http://www.bom.gov.au/fwo/IDS60801/IDS60801.95676.json

Data quality

Most of these data are generated automatically and are frequently updated. Quality checks on data are not normally performed. It is possible for incorrect values to appear. Refer to information at About Latest Weather Observations and please check the disclaimer before using these data.